Time;durP1;ratioP1;P1;durP2;ratioP2;P2;SDS_P1;SDS_P2;PMS_P1;PMS_P2;Temp;Humidity;BMP_temperature;BMP_pressure;BME280_temperature;BME280_humidity;BME280_pressure;Samples;Min_cycle;Max_cycle;Signal;HPM_P1;HPM_P2
2022/10/03 00:01:01;;;;;;;6.90;4.73;;;7.50;99.90;;;;;;6310252;22;20423;-63
2022/10/03 00:03:35;;;;;;;10.53;5.40;;;7.40;99.90;;;;;;6310555;22;20439;-63
2022/10/03 00:06:09;;;;;;;8.63;5.50;;;7.50;99.90;;;;;;6309569;22;20748;-62
2022/10/03 00:08:58;;;;;;;16.70;6.13;;;7.50;99.90;;;;;;6310157;22;20408;-63
2022/10/03 00:11:39;;;;;;;10.90;5.60;;;7.40;99.90;;;;;;6309499;22;20463;-63
2022/10/03 00:14:17;;;;;;;11.93;5.37;;;7.30;99.90;;;;;;6310135;22;20397;-63
2022/10/03 00:16:53;;;;;;;8.80;5.57;;;7.30;99.90;;;;;;6309859;22;20420;-63
2022/10/03 00:19:35;;;;;;;10.23;4.60;;;7.30;99.90;;;;;;6310205;22;20776;-63
2022/10/03 00:22:17;;;;;;;10.87;6.03;;;7.30;99.90;;;;;;6309509;22;20909;-63
2022/10/03 00:25:04;;;;;;;7.70;4.93;;;7.30;99.90;;;;;;6308946;22;20431;-62
2022/10/03 00:27:37;;;;;;;9.97;5.07;;;7.40;99.90;;;;;;6308407;22;20846;-62
2022/10/03 00:30:19;;;;;;;8.30;5.57;;;7.30;99.90;;;;;;6310459;22;20424;-62
2022/10/03 00:33:15;;;;;;;13.60;6.20;;;7.30;99.90;;;;;;6309690;22;20860;-62
2022/10/03 00:36:01;;;;;;;14.93;5.97;;;7.20;99.90;;;;;;6309835;22;20523;-62
2022/10/03 00:38:58;;;;;;;8.83;6.03;;;7.10;99.90;;;;;;6309218;22;20916;-63
2022/10/03 00:41:49;;;;;;;6.53;5.10;;;7.10;99.90;;;;;;6267330;22;20435;-62
2022/10/03 00:44:47;;;;;;;11.13;5.87;;;7.00;99.90;;;;;;6309260;22;20419;-63
2022/10/03 00:47:39;;;;;;;8.90;5.80;;;7.00;99.90;;;;;;6309054;22;20412;-63
2022/10/03 00:50:43;;;;;;;18.80;5.67;;;6.90;99.90;;;;;;6310025;22;20417;-63
2022/10/03 00:53:33;;;;;;;10.53;4.90;;;6.90;99.90;;;;;;6309486;22;20830;-62
2022/10/03 00:56:26;;;;;;;9.67;5.67;;;6.90;99.90;;;;;;6309320;22;20768;-63
2022/10/03 00:59:11;;;;;;;11.90;5.20;;;6.90;99.90;;;;;;6310182;22;20705;-63
2022/10/03 01:01:44;;;;;;;9.37;5.20;;;6.90;99.90;;;;;;6309320;22;20417;-63
2022/10/03 01:04:44;;;;;;;9.40;4.33;;;6.90;99.90;;;;;;6309675;22;20730;-63
2022/10/03 01:07:32;;;;;;;7.13;5.27;;;6.90;99.90;;;;;;6309049;22;20834;-62
2022/10/03 01:10:15;;;;;;;7.17;4.60;;;6.80;99.90;;;;;;6309315;22;20666;-62
2022/10/03 01:13:12;;;;;;;7.53;5.10;;;6.80;99.90;;;;;;6308644;22;20473;-62
2022/10/03 01:15:50;;;;;;;7.13;4.90;;;6.80;99.90;;;;;;6307450;22;20436;-63
2022/10/03 01:18:25;;;;;;;10.13;5.30;;;6.70;99.90;;;;;;6309237;22;20447;-62
2022/10/03 01:21:04;;;;;;;6.63;4.90;;;6.70;99.90;;;;;;6310018;22;20391;-63
2022/10/03 01:24:13;;;;;;;5.90;4.53;;;6.70;99.90;;;;;;6309230;22;20422;-63
2022/10/03 01:27:00;;;;;;;13.60;5.47;;;6.60;99.90;;;;;;6285226;22;20506;-63
2022/10/03 01:32:40;;;;;;;6.53;4.60;;;6.70;99.90;;;;;;6309529;22;20852;-62
2022/10/03 01:35:21;;;;;;;5.30;4.03;;;6.80;99.90;;;;;;6308079;22;20454;-62
2022/10/03 01:38:00;;;;;;;11.30;6.40;;;6.70;99.90;;;;;;6308858;22;20457;-62
2022/10/03 01:40:34;;;;;;;11.07;5.47;;;6.70;99.90;;;;;;6309780;22;20401;-62
2022/10/03 01:43:10;;;;;;;7.53;4.73;;;6.60;99.90;;;;;;6309442;22;20681;-63
2022/10/03 01:45:48;;;;;;;9.40;4.80;;;6.60;99.90;;;;;;6311032;22;20821;-63
2022/10/03 01:48:22;;;;;;;6.80;5.13;;;6.50;99.90;;;;;;6310842;22;20493;-63
2022/10/03 01:51:01;;;;;;;10.83;4.70;;;6.60;99.90;;;;;;6311657;22;20390;-63
2022/10/03 01:53:38;;;;;;;10.13;4.40;;;6.50;99.90;;;;;;6310805;22;20420;-63
2022/10/03 01:56:12;;;;;;;5.37;4.07;;;6.50;99.90;;;;;;6311595;22;20420;-63
2022/10/03 01:58:55;;;;;;;7.27;4.90;;;6.50;99.90;;;;;;6310342;22;20453;-63
2022/10/03 02:01:31;;;;;;;7.30;5.00;;;6.50;99.90;;;;;;6310684;22;20394;-63
2022/10/03 02:04:07;;;;;;;10.60;4.90;;;6.50;99.90;;;;;;6311418;22;20394;-63
2022/10/03 02:06:45;;;;;;;7.10;4.60;;;6.50;99.90;;;;;;6311443;22;20704;-63
2022/10/03 02:09:25;;;;;;;7.97;5.20;;;6.40;99.90;;;;;;6310735;22;20469;-63
2022/10/03 02:12:04;;;;;;;9.20;4.77;;;6.40;99.90;;;;;;6311266;22;20461;-63
2022/10/03 02:14:45;;;;;;;7.77;4.03;;;6.30;99.90;;;;;;6311615;22;20434;-63
2022/10/03 02:17:29;;;;;;;7.70;4.57;;;6.30;99.90;;;;;;6309827;22;20391;-63
2022/10/03 02:20:07;;;;;;;8.20;5.10;;;6.40;99.90;;;;;;6311011;22;20539;-63
2022/10/03 02:22:42;;;;;;;8.13;4.90;;;6.30;99.90;;;;;;6311367;22;20427;-63
2022/10/03 02:25:24;;;;;;;6.93;5.20;;;6.30;99.90;;;;;;6309856;22;20435;-63
2022/10/03 02:28:15;;;;;;;7.23;4.67;;;6.30;99.90;;;;;;6311391;22;20383;-63
2022/10/03 02:31:02;;;;;;;7.00;5.30;;;6.50;99.90;;;;;;6310737;22;20495;-63
2022/10/03 02:33:52;;;;;;;7.13;5.03;;;6.60;99.90;;;;;;6311134;22;20393;-63
2022/10/03 02:36:51;;;;;;;6.37;4.40;;;6.60;99.90;;;;;;6311127;22;20391;-63
2022/10/03 02:40:00;;;;;;;7.30;5.33;;;6.80;99.90;;;;;;6271105;22;20547;-63
2022/10/03 02:42:53;;;;;;;10.20;4.70;;;6.90;99.90;;;;;;6311012;22;20391;-63
2022/10/03 02:45:47;;;;;;;8.63;4.30;;;7.00;99.90;;;;;;6310450;22;20726;-63
2022/10/03 02:48:53;;;;;;;10.43;4.77;;;7.00;99.90;;;;;;6299217;22;20391;-63
2022/10/03 02:52:06;;;;;;;5.00;4.00;;;7.10;99.90;;;;;;6310599;22;20420;-63
2022/10/03 02:54:55;;;;;;;7.03;4.67;;;7.20;99.90;;;;;;6310792;22;20516;-64
2022/10/03 02:58:02;;;;;;;8.37;4.53;;;7.20;99.90;;;;;;6310055;22;20876;-64
2022/10/03 03:00:46;;;;;;;7.77;4.70;;;7.30;99.90;;;;;;6310831;22;20416;-63
2022/10/03 03:04:04;;;;;;;7.63;4.17;;;7.30;99.90;;;;;;6310170;22;20416;-63
2022/10/03 03:06:57;;;;;;;6.50;4.53;;;7.30;99.90;;;;;;6215409;23;20419;-63
2022/10/03 03:10:07;;;;;;;10.00;5.03;;;7.40;99.90;;;;;;6215625;23;20417;-63
2022/10/03 03:13:10;;;;;;;7.30;4.90;;;7.40;99.90;;;;;;6311131;22;20452;-63
2022/10/03 03:16:14;;;;;;;5.40;4.57;;;7.50;99.90;;;;;;6310296;22;20461;-63
2022/10/03 03:18:49;;;;;;;7.03;4.73;;;7.50;99.90;;;;;;6304838;22;20448;-63
2022/10/03 03:21:27;;;;;;;8.40;4.07;;;7.50;99.90;;;;;;6310144;22;20915;-64
2022/10/03 03:24:28;;;;;;;5.53;4.30;;;7.50;99.90;;;;;;6310592;22;20841;-64
2022/10/03 03:27:18;;;;;;;5.37;4.37;;;7.50;99.90;;;;;;6270014;22;20422;-63
2022/10/03 03:29:55;;;;;;;6.30;4.97;;;7.50;99.90;;;;;;6310384;22;20441;-63
2022/10/03 03:32:34;;;;;;;6.60;4.50;;;7.40;99.90;;;;;;6309273;22;20434;-63
2022/10/03 03:35:14;;;;;;;4.97;3.80;;;7.40;99.90;;;;;;6310206;22;20414;-63
2022/10/03 03:37:51;;;;;;;11.20;4.47;;;7.40;99.90;;;;;;6309454;22;20427;-63
2022/10/03 03:40:34;;;;;;;6.10;4.00;;;7.30;99.90;;;;;;6310632;22;20419;-63
2022/10/03 03:43:38;;;;;;;8.40;4.90;;;7.30;99.90;;;;;;6310236;22;20477;-63
2022/10/03 03:46:17;;;;;;;6.13;4.47;;;7.10;99.90;;;;;;6286964;22;20407;-63
2022/10/03 03:49:17;;;;;;;7.43;4.80;;;7.00;99.90;;;;;;6309924;22;20841;-63
2022/10/03 03:51:57;;;;;;;6.17;4.17;;;7.00;99.90;;;;;;6310679;22;20419;-63
2022/10/03 03:54:45;;;;;;;5.63;4.33;;;6.90;99.90;;;;;;6310179;22;20420;-63
2022/10/03 03:58:01;;;;;;;6.53;4.80;;;6.90;99.90;;;;;;6310118;22;20413;-63
2022/10/03 04:00:49;;;;;;;10.07;5.47;;;7.00;99.90;;;;;;6269109;22;20416;-63
2022/10/03 04:03:38;;;;;;;8.50;5.50;;;7.00;99.90;;;;;;6309659;22;20391;-63
2022/10/03 04:06:22;;;;;;;11.07;5.60;;;7.10;99.90;;;;;;6310179;22;20878;-63
2022/10/03 04:09:09;;;;;;;6.50;5.33;;;7.20;99.90;;;;;;6309669;22;20383;-64
2022/10/03 04:11:53;;;;;;;8.27;5.40;;;7.30;99.90;;;;;;6309899;22;20518;-64
2022/10/03 04:14:55;;;;;;;7.57;5.07;;;7.30;99.90;;;;;;6310682;22;20436;-64
2022/10/03 04:20:49;;;;;;;8.53;5.77;;;7.50;99.90;;;;;;6309725;22;20406;-64
2022/10/03 04:23:29;;;;;;;10.03;4.97;;;7.50;99.90;;;;;;6308298;22;20391;-64
2022/10/03 04:26:18;;;;;;;8.27;5.50;;;7.50;99.90;;;;;;6307587;22;20919;-64
2022/10/03 04:29:24;;;;;;;7.20;5.73;;;7.60;99.90;;;;;;6308904;22;20447;-64
2022/10/03 04:32:04;;;;;;;9.77;5.40;;;7.60;99.90;;;;;;6308650;22;20391;-64
2022/10/03 04:34:50;;;;;;;7.33;6.07;;;7.60;99.90;;;;;;6308978;22;20395;-64
2022/10/03 04:37:27;;;;;;;8.47;5.47;;;7.60;99.90;;;;;;6308497;22;20408;-64
2022/10/03 04:40:08;;;;;;;10.90;5.53;;;7.60;99.90;;;;;;6307393;22;20427;-64
2022/10/03 04:42:47;;;;;;;12.90;5.80;;;7.60;99.90;;;;;;6308347;22;20398;-64
2022/10/03 04:45:35;;;;;;;9.87;5.93;;;7.70;99.90;;;;;;6307992;22;20512;-65
2022/10/03 04:48:15;;;;;;;9.80;5.37;;;7.70;99.90;;;;;;6304772;22;20434;-65
2022/10/03 04:50:51;;;;;;;13.13;6.30;;;7.80;99.90;;;;;;6307150;22;20391;-64
2022/10/03 04:53:31;;;;;;;10.60;6.50;;;7.80;99.90;;;;;;6307288;22;20862;-64
2022/10/03 04:56:12;;;;;;;17.40;6.63;;;7.80;99.90;;;;;;6306310;22;20394;-64
2022/10/03 04:58:45;;;;;;;8.03;6.17;;;7.90;99.90;;;;;;6307174;22;20909;-64
2022/10/03 05:01:23;;;;;;;11.90;6.67;;;7.90;99.90;;;;;;6306918;22;20395;-64
2022/10/03 05:04:01;;;;;;;9.27;5.90;;;7.90;99.90;;;;;;6307887;22;20757;-64
2022/10/03 05:06:47;;;;;;;11.60;6.50;;;7.90;99.90;;;;;;6308466;22;20899;-64
2022/10/03 05:09:26;;;;;;;10.20;6.10;;;8.00;99.90;;;;;;6307906;22;20391;-64
2022/10/03 05:12:13;;;;;;;10.67;6.73;;;8.00;99.90;;;;;;6307685;22;20420;-64
2022/10/03 05:15:06;;;;;;;12.50;5.90;;;8.00;99.90;;;;;;6305476;22;20402;-64
2022/10/03 05:17:47;;;;;;;11.30;6.40;;;8.00;99.90;;;;;;6270932;22;20944;-64
2022/10/03 05:20:32;;;;;;;7.87;5.30;;;8.00;99.90;;;;;;6308605;22;20487;-64
2022/10/03 05:23:11;;;;;;;15.40;6.77;;;8.10;99.90;;;;;;6309345;22;20402;-64
2022/10/03 05:25:46;;;;;;;12.23;6.77;;;8.10;99.90;;;;;;6309281;22;20753;-64
2022/10/03 05:28:25;;;;;;;8.23;6.83;;;8.10;99.90;;;;;;6310074;22;20425;-64
2022/10/03 05:30:59;;;;;;;10.37;6.53;;;8.10;99.90;;;;;;6310101;22;20420;-64
2022/10/03 05:33:38;;;;;;;11.70;6.60;;;8.20;99.90;;;;;;6310178;22;20735;-64
2022/10/03 05:36:28;;;;;;;11.20;6.00;;;8.20;99.90;;;;;;6310664;22;20513;-64
2022/10/03 05:39:27;;;;;;;11.00;6.40;;;8.20;99.90;;;;;;6309496;22;20598;-64
2022/10/03 05:42:23;;;;;;;14.80;6.50;;;8.20;99.90;;;;;;6309369;22;20944;-64
2022/10/03 05:45:02;;;;;;;12.00;7.30;;;8.20;99.90;;;;;;6310399;22;20507;-64
2022/10/03 05:47:48;;;;;;;12.07;7.97;;;8.30;99.90;;;;;;6309868;22;20383;-64
2022/10/03 05:50:56;;;;;;;13.70;7.80;;;8.30;99.90;;;;;;6311424;22;20469;-64
2022/10/03 05:54:11;;;;;;;14.17;6.63;;;8.30;99.90;;;;;;6311237;22;20416;-64
2022/10/03 05:57:12;;;;;;;12.07;7.90;;;8.30;99.90;;;;;;6245685;23;20418;-64
2022/10/03 06:00:16;;;;;;;10.90;7.63;;;8.30;99.90;;;;;;6244991;23;20495;-64
2022/10/03 06:02:59;;;;;;;11.40;7.13;;;8.30;99.90;;;;;;6270477;22;20428;-64
2022/10/03 06:05:51;;;;;;;13.33;7.93;;;8.30;99.90;;;;;;6309938;22;20854;-64
2022/10/03 06:09:16;;;;;;;15.37;8.37;;;8.40;99.90;;;;;;6309924;22;20721;-64
2022/10/03 06:12:08;;;;;;;12.87;7.87;;;8.40;99.90;;;;;;6215209;23;20414;-64
2022/10/03 06:15:01;;;;;;;20.57;9.20;;;8.40;99.90;;;;;;6215172;23;20422;-64
2022/10/03 06:17:53;;;;;;;12.53;7.60;;;8.50;99.90;;;;;;6305523;22;20420;-64
2022/10/03 06:20:59;;;;;;;10.87;7.57;;;8.50;99.90;;;;;;6278677;22;20524;-64
2022/10/03 06:23:58;;;;;;;12.23;8.00;;;8.60;99.90;;;;;;6310460;22;20489;-64
2022/10/03 06:27:03;;;;;;;14.43;8.27;;;8.70;99.90;;;;;;6310438;22;20436;-64
2022/10/03 06:30:11;;;;;;;13.37;8.03;;;8.70;99.90;;;;;;6310914;22;20522;-64
2022/10/03 06:33:15;;;;;;;15.97;7.90;;;8.80;99.90;;;;;;6298182;22;20729;-64
2022/10/03 06:36:21;;;;;;;13.73;8.67;;;8.90;99.90;;;;;;6311469;22;20496;-64
2022/10/03 06:39:28;;;;;;;12.37;7.10;;;8.90;99.90;;;;;;6311287;22;20895;-64
2022/10/03 06:42:38;;;;;;;10.90;7.93;;;8.90;99.90;;;;;;6310451;22;20426;-64
2022/10/03 06:45:47;;;;;;;12.10;8.20;;;8.90;99.90;;;;;;6310684;22;20676;-64
2022/10/03 06:48:36;;;;;;;10.60;8.00;;;9.00;99.90;;;;;;6291323;22;20453;-64
2022/10/03 06:51:34;;;;;;;15.07;9.07;;;9.20;99.90;;;;;;6308454;22;20420;-64
2022/10/03 06:54:31;;;;;;;16.93;9.83;;;9.30;99.90;;;;;;6264991;22;20398;-64
2022/10/03 06:57:11;;;;;;;15.60;10.10;;;9.40;99.90;;;;;;6302492;22;20399;-64
2022/10/03 06:59:58;;;;;;;14.97;9.83;;;9.50;99.90;;;;;;6309648;22;20419;-64
2022/10/03 07:02:41;;;;;;;18.60;10.63;;;9.60;99.90;;;;;;6309710;22;20423;-64
2022/10/03 07:05:56;;;;;;;14.27;9.37;;;9.70;99.90;;;;;;6309852;22;20519;-64
2022/10/03 07:09:00;;;;;;;17.23;10.43;;;9.80;99.90;;;;;;6310775;22;20459;-64
2022/10/03 07:11:59;;;;;;;15.77;9.83;;;9.80;99.90;;;;;;6310123;22;20399;-64
2022/10/03 07:15:13;;;;;;;18.00;10.90;;;9.90;99.90;;;;;;6309830;22;20850;-64
2022/10/03 07:18:15;;;;;;;15.77;11.50;;;10.00;99.90;;;;;;6303385;22;20442;-64
2022/10/03 07:21:31;;;;;;;16.73;10.57;;;10.10;99.90;;;;;;6310894;22;20428;-64
2022/10/03 07:24:33;;;;;;;13.53;9.67;;;10.10;99.90;;;;;;6215861;23;20418;-65
2022/10/03 07:27:24;;;;;;;15.30;10.67;;;10.30;99.90;;;;;;6309801;22;20421;-65
2022/10/03 07:30:11;;;;;;;15.07;10.50;;;10.40;99.90;;;;;;6310247;22;20511;-65
2022/10/03 07:33:02;;;;;;;14.57;10.47;;;10.50;99.90;;;;;;6310441;22;20402;-65
2022/10/03 07:39:11;;;;;;;14.30;10.50;;;10.70;99.90;;;;;;6310098;22;20453;-65
2022/10/03 07:41:59;;;;;;;20.77;10.00;;;10.80;99.90;;;;;;6309130;22;20416;-65
2022/10/03 07:45:01;;;;;;;16.73;10.87;;;11.00;99.90;;;;;;6307845;22;20831;-65
2022/10/03 07:48:05;;;;;;;20.20;10.67;;;11.20;99.90;;;;;;6309407;22;20832;-64
2022/10/03 07:50:56;;;;;;;12.63;10.27;;;11.40;99.90;;;;;;6310304;22;20876;-64
2022/10/03 07:53:55;;;;;;;17.30;9.57;;;11.50;99.90;;;;;;6309936;22;20824;-64
2022/10/03 07:56:47;;;;;;;15.20;9.50;;;11.60;99.90;;;;;;6300661;22;20740;-64
2022/10/03 07:59:52;;;;;;;16.10;10.97;;;11.70;99.90;;;;;;6308989;22;20424;-64
2022/10/03 08:03:04;;;;;;;17.87;11.00;;;11.80;99.90;;;;;;6309137;22;20423;-64
2022/10/03 08:05:47;;;;;;;19.43;11.30;;;11.80;99.90;;;;;;6248021;22;20399;-64
2022/10/03 08:08:39;;;;;;;17.70;13.40;;;12.00;99.90;;;;;;6309870;22;20824;-64
2022/10/03 08:11:33;;;;;;;21.60;13.63;;;12.00;99.90;;;;;;6308992;22;20415;-64
2022/10/03 08:14:20;;;;;;;20.33;13.47;;;12.10;99.90;;;;;;6309222;22;20476;-64
2022/10/03 08:17:27;;;;;;;17.70;13.00;;;12.30;99.90;;;;;;6307984;22;20419;-64
2022/10/03 08:20:21;;;;;;;24.37;13.50;;;12.30;99.90;;;;;;6263572;22;20436;-64
2022/10/03 08:23:02;;;;;;;23.80;13.80;;;12.40;99.90;;;;;;6310041;22;20401;-63
2022/10/03 08:25:46;;;;;;;15.50;11.60;;;12.60;99.90;;;;;;6309327;22;20414;-63
2022/10/03 08:28:44;;;;;;;16.93;11.70;;;12.40;99.90;;;;;;6309904;22;20420;-63
2022/10/03 08:31:35;;;;;;;19.70;13.87;;;12.30;99.90;;;;;;6262184;22;20414;-63
2022/10/03 08:34:31;;;;;;;18.27;11.77;;;12.40;99.90;;;;;;6306501;22;20452;-63
2022/10/03 08:37:32;;;;;;;18.60;13.50;;;12.40;99.90;;;;;;6308515;22;20421;-63
2022/10/03 08:40:37;;;;;;;19.13;12.60;;;13.00;99.90;;;;;;6251847;22;20423;-63
2022/10/03 08:43:33;;;;;;;19.90;13.13;;;13.10;99.90;;;;;;6308144;22;20432;-63
2022/10/03 08:46:17;;;;;;;15.63;11.40;;;13.40;99.90;;;;;;6213299;23;20802;-63
2022/10/03 08:49:05;;;;;;;17.17;11.10;;;13.80;99.90;;;;;;6303864;22;20420;-62
2022/10/03 08:52:04;;;;;;;19.77;12.43;;;14.20;99.90;;;;;;6307732;22;20490;-62
2022/10/03 08:54:56;;;;;;;13.83;11.10;;;15.00;99.90;;;;;;6306680;22;20782;-61
2022/10/03 08:58:15;;;;;;;16.87;12.17;;;15.50;99.90;;;;;;6306601;22;20824;-63
2022/10/03 09:01:04;;;;;;;20.17;11.73;;;15.90;99.90;;;;;;6306723;22;20451;-63
2022/10/03 09:04:31;;;;;;;18.30;11.90;;;16.00;1.00;;;;;;6305553;22;20450;-63
2022/10/03 09:07:50;;;;;;;17.33;12.03;;;16.20;1.00;;;;;;6305163;22;20416;-63
2022/10/03 09:10:54;;;;;;;16.47;11.27;;;16.50;1.00;;;;;;6305265;22;20440;-63
2022/10/03 09:13:58;;;;;;;17.23;11.20;;;16.80;1.00;;;;;;6230694;22;20386;-63
2022/10/03 09:16:50;;;;;;;16.87;11.90;;;17.20;1.00;;;;;;6306978;22;20412;-63
2022/10/03 09:20:11;;;;;;;16.30;11.23;;;16.60;1.00;;;;;;6306993;22;20514;-63
2022/10/03 09:23:02;;;;;;;17.10;12.07;;;16.90;1.00;;;;;;6213353;23;20525;-63
2022/10/03 09:25:56;;;;;;;15.23;11.90;;;17.50;1.00;;;;;;6213924;23;20435;-63
2022/10/03 09:28:58;;;;;;;13.07;9.53;;;17.30;99.90;;;;;;6301862;22;20417;-63
2022/10/03 09:32:07;;;;;;;18.00;10.37;;;17.70;99.90;;;;;;6279847;22;20543;-63
2022/10/03 09:35:11;;;;;;;20.47;8.57;;;17.90;99.90;;;;;;6307447;22;20490;-62
2022/10/03 09:38:00;;;;;;;12.77;7.87;;;18.80;99.90;;;;;;6292909;22;20430;-63
2022/10/03 09:41:06;;;;;;;13.50;8.07;;;18.80;99.90;;;;;;6306906;22;20458;-62
2022/10/03 09:44:11;;;;;;;10.97;7.33;;;18.30;99.90;;;;;;6281826;22;20486;-62
2022/10/03 09:47:26;;;;;;;14.90;8.00;;;17.90;99.90;;;;;;6308992;22;20889;-62
2022/10/03 09:50:26;;;;;;;12.80;7.00;;;17.40;99.90;;;;;;6309138;22;20448;-62
2022/10/03 09:53:28;;;;;;;13.23;9.40;;;16.40;99.90;;;;;;6309455;22;20925;-62
2022/10/03 09:56:32;;;;;;;13.83;8.03;;;16.10;1.00;;;;;;6306781;22;20402;-62
2022/10/03 09:59:28;;;;;;;11.67;6.60;;;15.80;1.00;;;;;;6272483;22;20416;-62
2022/10/03 10:02:15;;;;;;;12.50;7.03;;;15.70;1.00;;;;;;6309124;22;20456;-62
2022/10/03 10:04:59;;;;;;;11.63;5.93;;;15.90;1.00;;;;;;6309850;22;20418;-62
2022/10/03 10:07:56;;;;;;;5.40;4.17;;;16.10;1.00;;;;;;6311142;22;20836;-62
2022/10/03 10:10:56;;;;;;;6.53;3.37;;;16.00;1.00;;;;;;6311045;22;20425;-62
2022/10/03 10:14:12;;;;;;;8.17;3.40;;;15.80;99.90;;;;;;6310976;22;20390;-62
2022/10/03 10:16:58;;;;;;;8.10;2.90;;;15.10;99.90;;;;;;6239308;22;20414;-62
2022/10/03 10:19:40;;;;;;;6.93;3.60;;;14.90;99.90;;;;;;6309421;22;20477;-62
2022/10/03 10:23:03;;;;;;;6.70;3.93;;;14.80;99.90;;;;;;6309224;22;20412;-61
2022/10/03 10:26:12;;;;;;;9.77;5.00;;;14.60;99.90;;;;;;6304107;22;20431;-62
2022/10/03 10:29:18;;;;;;;8.47;3.60;;;14.80;99.90;;;;;;6309911;22;20724;-62
2022/10/03 10:32:22;;;;;;;8.37;4.00;;;16.00;1.00;;;;;;6309538;22;20838;-62
2022/10/03 10:35:40;;;;;;;7.83;4.00;;;16.80;99.90;;;;;;6309870;22;20714;-62
2022/10/03 10:38:36;;;;;;;9.83;3.70;;;17.30;99.90;;;;;;6309639;22;20416;-62
2022/10/03 10:41:48;;;;;;;6.80;3.40;;;17.80;99.90;;;;;;6310351;22;20505;-62
2022/10/03 10:45:12;;;;;;;4.63;3.13;;;17.70;99.90;;;;;;6311114;22;20500;-62
2022/10/03 10:48:23;;;;;;;11.87;3.57;;;17.20;99.90;;;;;;6310636;22;20858;-62
2022/10/03 10:51:38;;;;;;;11.13;4.43;;;16.50;99.90;;;;;;6311044;22;20808;-62
2022/10/03 10:54:40;;;;;;;8.43;3.77;;;15.70;99.90;;;;;;6310623;22;20473;-62
2022/10/03 10:57:50;;;;;;;6.20;2.70;;;15.50;99.90;;;;;;6310469;22;20477;-62
2022/10/03 11:00:25;;;;;;;5.43;4.30;;;15.90;99.90;;;;;;6308682;22;20443;-62
2022/10/03 11:03:50;;;;;;;6.80;2.43;;;16.30;99.90;;;;;;6308477;22;20410;-62
2022/10/03 11:07:01;;;;;;;5.50;3.13;;;16.00;99.90;;;;;;6308847;22;20516;-62
2022/10/03 11:09:46;;;;;;;3.93;2.70;;;15.80;99.90;;;;;;6237972;22;20739;-61
2022/10/03 11:12:59;;;;;;;7.50;2.40;;;15.90;99.90;;;;;;6310182;22;20416;-62
2022/10/03 11:16:09;;;;;;;4.97;2.20;;;16.20;99.90;;;;;;6310267;22;20390;-61
2022/10/03 11:19:30;;;;;;;5.93;2.77;;;16.90;99.90;;;;;;6310337;22;20440;-62
2022/10/03 11:22:41;;;;;;;7.40;2.83;;;16.90;99.90;;;;;;6307885;22;20546;-62
2022/10/03 11:25:49;;;;;;;6.23;2.50;;;17.20;99.90;;;;;;6307748;22;20769;-62
2022/10/03 11:28:57;;;;;;;5.60;2.20;;;17.40;99.90;;;;;;6308430;22;20435;-62
2022/10/03 11:32:14;;;;;;;6.67;2.70;;;17.80;99.90;;;;;;6309435;22;20826;-62
2022/10/03 11:35:17;;;;;;;6.30;3.20;;;18.20;99.90;;;;;;6309625;22;20502;-62
2022/10/03 11:37:53;;;;;;;6.23;3.40;;;18.00;99.90;;;;;;6310290;22;20443;-62
2022/10/03 11:40:31;;;;;;;9.27;3.60;;;18.20;99.90;;;;;;6307016;22;20455;-63
2022/10/03 11:43:27;;;;;;;7.83;4.47;;;17.90;99.90;;;;;;6309306;22;20412;-63
2022/10/03 11:46:01;;;;;;;4.33;2.53;;;17.60;99.90;;;;;;6270785;22;20391;-63
2022/10/03 11:48:39;;;;;;;5.30;2.60;;;17.10;99.90;;;;;;6310220;22;20430;-63
2022/10/03 11:51:15;;;;;;;6.03;2.70;;;16.60;99.90;;;;;;6309720;22;20397;-63
2022/10/03 11:54:01;;;;;;;8.10;2.80;;;16.60;99.90;;;;;;6310247;22;20391;-63
2022/10/03 11:56:39;;;;;;;8.27;2.73;;;16.20;99.90;;;;;;6306971;22;20472;-63
2022/10/03 11:59:46;;;;;;;3.57;2.50;;;16.20;99.90;;;;;;6306346;22;20412;-63
2022/10/03 12:02:20;;;;;;;6.47;2.40;;;17.10;99.90;;;;;;6308352;22;20408;-64
2022/10/03 12:05:04;;;;;;;4.80;2.90;;;17.00;99.90;;;;;;6307675;22;20867;-64
2022/10/03 12:10:44;;;;;;;6.43;2.80;;;16.30;99.90;;;;;;6307253;22;20835;-64
2022/10/03 12:13:16;;;;;;;4.63;2.80;;;16.20;99.90;;;;;;6306477;22;20416;-63
2022/10/03 12:15:47;;;;;;;7.30;3.30;;;16.50;99.90;;;;;;6306832;22;20427;-63
2022/10/03 12:18:21;;;;;;;5.73;3.10;;;16.80;99.90;;;;;;6308020;22;20449;-63
2022/10/03 12:21:06;;;;;;;5.80;2.60;;;17.20;99.90;;;;;;6305830;22;20439;-63
2022/10/03 12:24:13;;;;;;;5.03;2.70;;;17.20;99.90;;;;;;6306733;22;20456;-63
2022/10/03 12:26:53;;;;;;;5.77;3.27;;;17.50;99.90;;;;;;6304820;22;20833;-63
2022/10/03 12:29:22;;;;;;;11.67;3.53;;;17.70;99.90;;;;;;6304797;22;20415;-64
2022/10/03 12:32:04;;;;;;;10.40;3.33;;;17.80;99.90;;;;;;6305338;22;20424;-63
2022/10/03 12:34:40;;;;;;;4.50;2.93;;;18.10;99.90;;;;;;6307298;22;20424;-63
2022/10/03 12:37:41;;;;;;;6.50;3.00;;;18.30;99.90;;;;;;6305076;22;20412;-64
2022/10/03 12:40:17;;;;;;;6.77;3.00;;;18.20;99.90;;;;;;6306576;22;20393;-63
2022/10/03 12:42:53;;;;;;;5.87;3.60;;;18.50;99.90;;;;;;6305148;22;20864;-63
2022/10/03 12:45:27;;;;;;;6.37;2.97;;;19.20;99.90;;;;;;6306009;22;20934;-63
2022/10/03 12:48:06;;;;;;;3.97;2.83;;;19.60;99.90;;;;;;6306690;22;20415;-64
2022/10/03 12:50:46;;;;;;;4.37;3.03;;;19.80;99.90;;;;;;6306061;22;20486;-64
2022/10/03 12:53:52;;;;;;;5.33;2.97;;;19.70;99.90;;;;;;6306861;22;20422;-64
2022/10/03 12:56:28;;;;;;;8.57;3.73;;;19.40;99.90;;;;;;6307255;22;20393;-64
2022/10/03 12:59:12;;;;;;;4.57;3.03;;;19.40;99.90;;;;;;6305975;22;20416;-64
2022/10/03 13:02:03;;;;;;;4.90;2.80;;;19.00;99.90;;;;;;6307126;22;20915;-64
2022/10/03 13:04:41;;;;;;;9.10;3.03;;;18.90;99.90;;;;;;6305796;22;20416;-64
2022/10/03 13:07:23;;;;;;;5.67;2.77;;;18.90;99.90;;;;;;6307957;22;20789;-64
2022/10/03 13:10:17;;;;;;;3.83;3.20;;;18.80;99.90;;;;;;6306740;22;20884;-64
2022/10/03 13:12:50;;;;;;;6.90;3.70;;;19.10;99.90;;;;;;6307320;22;20519;-64
2022/10/03 13:15:46;;;;;;;5.07;3.10;;;19.20;99.90;;;;;;6307255;22;20416;-64
2022/10/03 13:18:43;;;;;;;5.03;2.93;;;19.20;99.90;;;;;;6306409;22;20412;-63
2022/10/03 13:21:18;;;;;;;6.63;2.80;;;19.40;99.90;;;;;;6283354;22;20448;-64
2022/10/03 13:23:53;;;;;;;4.20;2.30;;;19.80;99.90;;;;;;6306770;22;20944;-64
2022/10/03 13:26:26;;;;;;;6.30;3.60;;;19.90;99.90;;;;;;6305778;22;20418;-64
2022/10/03 13:29:22;;;;;;;4.43;3.20;;;19.80;99.90;;;;;;6306800;22;20420;-64
2022/10/03 13:32:16;;;;;;;6.13;3.40;;;19.70;99.90;;;;;;6307449;22;20497;-64
2022/10/03 13:34:58;;;;;;;5.10;2.73;;;19.40;99.90;;;;;;6305602;22;20446;-64
2022/10/03 13:37:33;;;;;;;7.90;3.70;;;19.60;99.90;;;;;;6307790;22;20422;-64
2022/10/03 13:40:08;;;;;;;4.70;3.13;;;19.30;99.90;;;;;;6308081;22;20517;-64
2022/10/03 13:42:40;;;;;;;4.00;2.83;;;19.00;99.90;;;;;;6309344;22;20733;-63
2022/10/03 13:45:14;;;;;;;7.47;4.17;;;18.50;99.90;;;;;;6309350;22;20431;-63
2022/10/03 13:47:50;;;;;;;4.97;3.80;;;17.80;99.90;;;;;;6308488;22;20422;-63
2022/10/03 13:50:26;;;;;;;4.87;2.73;;;17.90;99.90;;;;;;6310409;22;20394;-63
2022/10/03 13:53:01;;;;;;;5.70;3.43;;;17.80;99.90;;;;;;6308164;22;20828;-63
2022/10/03 13:55:41;;;;;;;5.07;3.40;;;17.30;99.90;;;;;;6309249;22;20522;-63
2022/10/03 13:58:31;;;;;;;4.63;3.53;;;17.50;99.90;;;;;;6310931;22;20721;-63
2022/10/03 14:01:23;;;;;;;9.90;4.30;;;18.00;99.90;;;;;;6296361;22;20495;-62
2022/10/03 14:04:07;;;;;;;6.20;3.20;;;17.90;99.90;;;;;;6311179;22;20485;-63
2022/10/03 14:06:44;;;;;;;7.30;3.43;;;18.60;99.90;;;;;;6310750;22;20497;-63
2022/10/03 14:09:33;;;;;;;4.90;3.50;;;18.80;99.90;;;;;;6309277;22;20420;-62
2022/10/03 14:12:09;;;;;;;7.30;3.73;;;19.10;99.90;;;;;;6309751;22;20387;-63
2022/10/03 14:15:06;;;;;;;5.57;3.40;;;18.70;99.90;;;;;;6311176;22;20414;-62
2022/10/03 14:17:45;;;;;;;6.77;3.83;;;19.20;99.90;;;;;;6309969;22;20428;-63
2022/10/03 14:20:29;;;;;;;4.70;2.83;;;18.80;99.90;;;;;;6310728;22;20465;-63
2022/10/03 14:23:24;;;;;;;5.77;3.67;;;18.90;99.90;;;;;;6309396;22;20834;-63
2022/10/03 14:25:58;;;;;;;7.30;4.40;;;18.80;99.90;;;;;;6309778;22;20440;-63
2022/10/03 14:28:32;;;;;;;6.80;4.00;;;19.50;99.90;;;;;;6309929;22;20419;-63
2022/10/03 14:31:09;;;;;;;3.90;3.17;;;19.60;99.90;;;;;;6309006;22;20391;-63
2022/10/03 14:33:46;;;;;;;3.87;3.27;;;20.00;99.90;;;;;;6310575;22;20514;-63
2022/10/03 14:36:33;;;;;;;4.80;3.10;;;20.00;99.90;;;;;;6311491;22;20395;-63
2022/10/03 14:39:21;;;;;;;4.80;3.10;;;20.40;99.90;;;;;;6310141;22;20699;-63
2022/10/03 14:42:27;;;;;;;5.00;3.17;;;20.50;99.90;;;;;;6310068;22;20533;-63
2022/10/03 14:44:58;;;;;;;7.47;3.67;;;20.00;99.90;;;;;;6215552;23;20415;-64
2022/10/03 14:47:29;;;;;;;9.20;3.23;;;20.10;99.90;;;;;;6214501;23;20458;-64
2022/10/03 14:50:00;;;;;;;4.33;3.47;;;20.00;99.90;;;;;;6214784;23;20418;-64
2022/10/03 14:52:34;;;;;;;6.47;3.83;;;19.60;99.90;;;;;;6233088;22;20420;-64
2022/10/03 14:55:16;;;;;;;8.20;3.93;;;18.90;99.90;;;;;;6309913;22;20420;-64
2022/10/03 14:57:51;;;;;;;5.67;3.80;;;18.30;99.90;;;;;;6310402;22;20542;-64